sensor_id;sensor_type;location;lat;lon;timestamp;temperature;humidity
15926;DHT22;8062;53.882;10.642;2024-03-25T00:00:14;6.00;99.90
15926;DHT22;8062;53.882;10.642;2024-03-25T00:01:33;6.00;99.90
15926;DHT22;8062;53.882;10.642;2024-03-25T00:02:53;6.00;99.90
15926;DHT22;8062;53.882;10.642;2024-03-25T00:04:13;5.90;99.90
15926;DHT22;8062;53.882;10.642;2024-03-25T00:05:32;6.00;99.90
15926;DHT22;8062;53.882;10.642;2024-03-25T00:06:52;5.90;99.90
15926;DHT22;8062;53.882;10.642;2024-03-25T00:08:13;5.90;99.90
15926;DHT22;8062;53.882;10.642;2024-03-25T00:09:32;5.90;99.90
15926;DHT22;8062;53.882;10.642;2024-03-25T00:10:52;5.90;99.90
15926;DHT22;8062;53.882;10.642;2024-03-25T00:12:11;5.90;99.90
15926;DHT22;8062;53.882;10.642;2024-03-25T00:13:31;5.90;99.90
15926;DHT22;8062;53.882;10.642;2024-03-25T00:14:50;5.90;99.90
15926;DHT22;8062;53.882;10.642;2024-03-25T00:16:09;6.00;99.90
15926;DHT22;8062;53.882;10.642;2024-03-25T00:17:29;6.00;99.90
15926;DHT22;8062;53.882;10.642;2024-03-25T00:18:49;6.00;99.90
15926;DHT22;8062;53.882;10.642;2024-03-25T00:20:08;6.00;99.90
15926;DHT22;8062;53.882;10.642;2024-03-25T00:21:29;6.00;99.90
15926;DHT22;8062;53.882;10.642;2024-03-25T00:22:48;6.00;99.90
15926;DHT22;8062;53.882;10.642;2024-03-25T00:24:08;6.00;99.90
15926;DHT22;8062;53.882;10.642;2024-03-25T00:25:27;6.00;99.90
15926;DHT22;8062;53.882;10.642;2024-03-25T00:26:47;6.00;99.90
15926;DHT22;8062;53.882;10.642;2024-03-25T00:28:07;6.00;99.90
15926;DHT22;8062;53.882;10.642;2024-03-25T00:29:26;6.00;99.90
15926;DHT22;8062;53.882;10.642;2024-03-25T00:30:46;6.00;99.90
15926;DHT22;8062;53.882;10.642;2024-03-25T00:32:06;6.00;99.90
15926;DHT22;8062;53.882;10.642;2024-03-25T00:33:26;6.00;99.90
15926;DHT22;8062;53.882;10.642;2024-03-25T00:34:45;6.00;99.90
15926;DHT22;8062;53.882;10.642;2024-03-25T00:36:05;5.90;99.90
15926;DHT22;8062;53.882;10.642;2024-03-25T00:37:24;5.80;99.90
15926;DHT22;8062;53.882;10.642;2024-03-25T00:38:44;5.80;99.90
15926;DHT22;8062;53.882;10.642;2024-03-25T00:40:04;5.80;99.90
15926;DHT22;8062;53.882;10.642;2024-03-25T00:41:26;5.80;99.90
15926;DHT22;8062;53.882;10.642;2024-03-25T00:42:46;5.80;99.90
15926;DHT22;8062;53.882;10.642;2024-03-25T00:44:07;5.80;99.90
15926;DHT22;8062;53.882;10.642;2024-03-25T00:45:26;5.80;99.90
15926;DHT22;8062;53.882;10.642;2024-03-25T00:46:50;5.70;99.90
15926;DHT22;8062;53.882;10.642;2024-03-25T00:48:10;5.50;99.90
15926;DHT22;8062;53.882;10.642;2024-03-25T00:49:31;5.40;99.90
15926;DHT22;8062;53.882;10.642;2024-03-25T00:50:51;5.30;99.90
15926;DHT22;8062;53.882;10.642;2024-03-25T00:52:10;5.30;99.90
15926;DHT22;8062;53.882;10.642;2024-03-25T00:53:29;5.40;99.90
15926;DHT22;8062;53.882;10.642;2024-03-25T00:54:49;5.40;99.90
15926;DHT22;8062;53.882;10.642;2024-03-25T00:56:09;5.40;99.90
15926;DHT22;8062;53.882;10.642;2024-03-25T00:57:28;5.40;99.90
15926;DHT22;8062;53.882;10.642;2024-03-25T00:58:48;5.40;99.90
15926;DHT22;8062;53.882;10.642;2024-03-25T01:00:08;5.50;99.90
15926;DHT22;8062;53.882;10.642;2024-03-25T01:01:29;5.60;99.90
15926;DHT22;8062;53.882;10.642;2024-03-25T01:02:49;5.60;99.90
15926;DHT22;8062;53.882;10.642;2024-03-25T01:04:08;5.60;99.90
15926;DHT22;8062;53.882;10.642;2024-03-25T01:05:28;5.70;99.90
15926;DHT22;8062;53.882;10.642;2024-03-25T01:06:47;5.70;99.90
15926;DHT22;8062;53.882;10.642;2024-03-25T01:08:07;5.70;99.90
15926;DHT22;8062;53.882;10.642;2024-03-25T01:09:30;5.70;99.90
15926;DHT22;8062;53.882;10.642;2024-03-25T01:10:49;5.80;99.90
15926;DHT22;8062;53.882;10.642;2024-03-25T01:12:09;5.80;99.90
15926;DHT22;8062;53.882;10.642;2024-03-25T01:13:29;5.80;99.90
15926;DHT22;8062;53.882;10.642;2024-03-25T01:14:49;5.80;99.90
15926;DHT22;8062;53.882;10.642;2024-03-25T01:16:09;5.70;99.90
15926;DHT22;8062;53.882;10.642;2024-03-25T01:17:28;5.70;99.90
15926;DHT22;8062;53.882;10.642;2024-03-25T01:18:47;5.70;99.90
15926;DHT22;8062;53.882;10.642;2024-03-25T01:20:08;5.70;99.90
15926;DHT22;8062;53.882;10.642;2024-03-25T01:21:28;5.70;99.90
15926;DHT22;8062;53.882;10.642;2024-03-25T01:22:48;5.70;99.90
15926;DHT22;8062;53.882;10.642;2024-03-25T01:24:07;5.80;99.90
15926;DHT22;8062;53.882;10.642;2024-03-25T01:25:27;5.80;99.90
15926;DHT22;8062;53.882;10.642;2024-03-25T01:26:46;5.70;99.90
15926;DHT22;8062;53.882;10.642;2024-03-25T01:28:06;5.70;99.90
15926;DHT22;8062;53.882;10.642;2024-03-25T01:29:26;5.70;99.90
15926;DHT22;8062;53.882;10.642;2024-03-25T01:30:45;5.70;99.90
15926;DHT22;8062;53.882;10.642;2024-03-25T01:32:05;5.70;99.90
15926;DHT22;8062;53.882;10.642;2024-03-25T01:33:24;5.70;99.90
15926;DHT22;8062;53.882;10.642;2024-03-25T01:34:44;5.70;99.90
15926;DHT22;8062;53.882;10.642;2024-03-25T01:36:04;5.70;99.90
15926;DHT22;8062;53.882;10.642;2024-03-25T01:37:25;5.70;99.90
15926;DHT22;8062;53.882;10.642;2024-03-25T01:38:44;5.70;99.90
15926;DHT22;8062;53.882;10.642;2024-03-25T01:40:05;5.70;99.90
15926;DHT22;8062;53.882;10.642;2024-03-25T01:41:24;5.70;99.90
15926;DHT22;8062;53.882;10.642;2024-03-25T01:42:58;5.70;99.90
15926;DHT22;8062;53.882;10.642;2024-03-25T01:44:17;5.70;99.90
15926;DHT22;8062;53.882;10.642;2024-03-25T01:45:37;5.70;99.90
15926;DHT22;8062;53.882;10.642;2024-03-25T01:46:56;5.70;99.90
15926;DHT22;8062;53.882;10.642;2024-03-25T01:48:16;5.70;99.90
15926;DHT22;8062;53.882;10.642;2024-03-25T01:49:36;5.70;99.90
15926;DHT22;8062;53.882;10.642;2024-03-25T01:50:56;5.70;99.90
15926;DHT22;8062;53.882;10.642;2024-03-25T01:52:17;5.70;99.90
15926;DHT22;8062;53.882;10.642;2024-03-25T01:53:37;5.70;99.90
15926;DHT22;8062;53.882;10.642;2024-03-25T01:54:57;5.70;99.90
15926;DHT22;8062;53.882;10.642;2024-03-25T01:56:17;5.60;99.90
15926;DHT22;8062;53.882;10.642;2024-03-25T01:57:37;5.60;99.90
15926;DHT22;8062;53.882;10.642;2024-03-25T01:58:59;5.70;99.90
15926;DHT22;8062;53.882;10.642;2024-03-25T02:00:20;5.60;99.90
15926;DHT22;8062;53.882;10.642;2024-03-25T02:01:41;5.60;99.90
15926;DHT22;8062;53.882;10.642;2024-03-25T02:03:00;5.60;99.90
15926;DHT22;8062;53.882;10.642;2024-03-25T02:04:20;5.60;99.90
15926;DHT22;8062;53.882;10.642;2024-03-25T02:05:39;5.60;99.90
15926;DHT22;8062;53.882;10.642;2024-03-25T02:06:59;5.60;99.90
15926;DHT22;8062;53.882;10.642;2024-03-25T02:08:19;5.60;99.90
15926;DHT22;8062;53.882;10.642;2024-03-25T02:09:39;5.60;99.90
15926;DHT22;8062;53.882;10.642;2024-03-25T02:10:59;5.60;99.90
15926;DHT22;8062;53.882;10.642;2024-03-25T02:12:19;5.60;99.90
15926;DHT22;8062;53.882;10.642;2024-03-25T02:13:39;5.50;99.90
15926;DHT22;8062;53.882;10.642;2024-03-25T02:14:59;5.60;99.90
15926;DHT22;8062;53.882;10.642;2024-03-25T02:16:18;5.60;99.90
15926;DHT22;8062;53.882;10.642;2024-03-25T02:17:39;5.60;99.90
15926;DHT22;8062;53.882;10.642;2024-03-25T02:18:58;5.60;99.90
15926;DHT22;8062;53.882;10.642;2024-03-25T02:20:18;5.60;99.90
15926;DHT22;8062;53.882;10.642;2024-03-25T02:21:37;5.60;99.90
15926;DHT22;8062;53.882;10.642;2024-03-25T02:22:57;5.60;99.90
15926;DHT22;8062;53.882;10.642;2024-03-25T02:24:19;5.60;99.90
15926;DHT22;8062;53.882;10.642;2024-03-25T02:25:42;5.70;99.90
15926;DHT22;8062;53.882;10.642;2024-03-25T02:27:01;5.60;99.90
15926;DHT22;8062;53.882;10.642;2024-03-25T02:28:21;5.60;99.90
15926;DHT22;8062;53.882;10.642;2024-03-25T02:29:41;5.60;99.90
15926;DHT22;8062;53.882;10.642;2024-03-25T02:31:00;5.60;99.90
15926;DHT22;8062;53.882;10.642;2024-03-25T02:32:20;5.60;99.90
15926;DHT22;8062;53.882;10.642;2024-03-25T02:33:39;5.60;99.90
15926;DHT22;8062;53.882;10.642;2024-03-25T02:35:03;5.60;99.90
15926;DHT22;8062;53.882;10.642;2024-03-25T02:36:23;5.60;99.90
15926;DHT22;8062;53.882;10.642;2024-03-25T02:37:43;5.50;99.90
15926;DHT22;8062;53.882;10.642;2024-03-25T02:39:02;5.50;99.90
15926;DHT22;8062;53.882;10.642;2024-03-25T02:40:23;5.50;99.90
15926;DHT22;8062;53.882;10.642;2024-03-25T02:41:44;5.50;99.90
15926;DHT22;8062;53.882;10.642;2024-03-25T02:43:03;5.50;99.90
15926;DHT22;8062;53.882;10.642;2024-03-25T02:44:23;5.40;99.90
15926;DHT22;8062;53.882;10.642;2024-03-25T02:45:43;5.40;99.90
15926;DHT22;8062;53.882;10.642;2024-03-25T02:47:02;5.40;99.90
15926;DHT22;8062;53.882;10.642;2024-03-25T02:48:23;5.40;99.90
15926;DHT22;8062;53.882;10.642;2024-03-25T02:49:42;5.40;99.90
15926;DHT22;8062;53.882;10.642;2024-03-25T02:51:02;5.40;99.90
15926;DHT22;8062;53.882;10.642;2024-03-25T02:52:22;5.40;99.90
15926;DHT22;8062;53.882;10.642;2024-03-25T02:53:42;5.40;99.90
15926;DHT22;8062;53.882;10.642;2024-03-25T02:55:01;5.40;99.90
15926;DHT22;8062;53.882;10.642;2024-03-25T02:56:21;5.40;99.90
15926;DHT22;8062;53.882;10.642;2024-03-25T02:57:41;5.40;99.90
15926;DHT22;8062;53.882;10.642;2024-03-25T02:59:00;5.30;99.90
15926;DHT22;8062;53.882;10.642;2024-03-25T03:00:20;5.40;99.90
15926;DHT22;8062;53.882;10.642;2024-03-25T03:01:40;5.30;99.90
15926;DHT22;8062;53.882;10.642;2024-03-25T03:02:59;5.40;99.90
15926;DHT22;8062;53.882;10.642;2024-03-25T03:04:19;5.30;99.90
15926;DHT22;8062;53.882;10.642;2024-03-25T03:05:38;5.40;99.90
15926;DHT22;8062;53.882;10.642;2024-03-25T03:06:58;5.30;99.90
15926;DHT22;8062;53.882;10.642;2024-03-25T03:08:17;5.30;99.90
15926;DHT22;8062;53.882;10.642;2024-03-25T03:09:38;5.30;99.90
15926;DHT22;8062;53.882;10.642;2024-03-25T03:10:58;5.30;99.90
15926;DHT22;8062;53.882;10.642;2024-03-25T03:12:17;5.30;99.90
15926;DHT22;8062;53.882;10.642;2024-03-25T03:13:36;5.30;99.90
15926;DHT22;8062;53.882;10.642;2024-03-25T03:14:56;5.30;99.90
15926;DHT22;8062;53.882;10.642;2024-03-25T03:16:15;5.30;99.90
15926;DHT22;8062;53.882;10.642;2024-03-25T03:17:35;5.30;99.90
15926;DHT22;8062;53.882;10.642;2024-03-25T03:18:55;5.30;99.90
15926;DHT22;8062;53.882;10.642;2024-03-25T03:20:14;5.30;99.90
15926;DHT22;8062;53.882;10.642;2024-03-25T03:21:34;5.40;99.90
15926;DHT22;8062;53.882;10.642;2024-03-25T03:22:53;5.40;99.90
15926;DHT22;8062;53.882;10.642;2024-03-25T03:24:13;5.40;99.90
15926;DHT22;8062;53.882;10.642;2024-03-25T03:25:33;5.30;99.90
15926;DHT22;8062;53.882;10.642;2024-03-25T03:26:52;5.40;99.90
15926;DHT22;8062;53.882;10.642;2024-03-25T03:28:11;5.30;99.90
15926;DHT22;8062;53.882;10.642;2024-03-25T03:29:31;5.30;99.90
15926;DHT22;8062;53.882;10.642;2024-03-25T03:30:51;5.30;99.90
15926;DHT22;8062;53.882;10.642;2024-03-25T03:32:10;5.40;99.90
15926;DHT22;8062;53.882;10.642;2024-03-25T03:33:30;5.40;99.90
15926;DHT22;8062;53.882;10.642;2024-03-25T03:34:49;5.40;99.90
15926;DHT22;8062;53.882;10.642;2024-03-25T03:36:09;5.40;99.90
15926;DHT22;8062;53.882;10.642;2024-03-25T03:37:28;5.40;99.90
15926;DHT22;8062;53.882;10.642;2024-03-25T03:38:50;5.40;99.90
15926;DHT22;8062;53.882;10.642;2024-03-25T03:40:10;5.40;99.90
15926;DHT22;8062;53.882;10.642;2024-03-25T03:41:30;5.40;99.90
15926;DHT22;8062;53.882;10.642;2024-03-25T03:42:50;5.40;99.90
15926;DHT22;8062;53.882;10.642;2024-03-25T03:44:10;5.40;99.90
15926;DHT22;8062;53.882;10.642;2024-03-25T03:45:33;5.50;99.90
15926;DHT22;8062;53.882;10.642;2024-03-25T03:46:53;5.40;99.90
15926;DHT22;8062;53.882;10.642;2024-03-25T03:48:13;5.40;99.90
15926;DHT22;8062;53.882;10.642;2024-03-25T03:49:32;5.40;99.90
15926;DHT22;8062;53.882;10.642;2024-03-25T03:50:51;5.40;99.90
15926;DHT22;8062;53.882;10.642;2024-03-25T03:52:11;5.40;99.90
15926;DHT22;8062;53.882;10.642;2024-03-25T03:53:32;5.40;99.90
15926;DHT22;8062;53.882;10.642;2024-03-25T03:54:52;5.50;99.90
15926;DHT22;8062;53.882;10.642;2024-03-25T03:56:12;5.50;99.90
15926;DHT22;8062;53.882;10.642;2024-03-25T03:57:32;5.50;99.90
15926;DHT22;8062;53.882;10.642;2024-03-25T03:58:51;5.50;99.90
15926;DHT22;8062;53.882;10.642;2024-03-25T04:00:11;5.50;99.90
15926;DHT22;8062;53.882;10.642;2024-03-25T04:01:33;5.40;99.90
15926;DHT22;8062;53.882;10.642;2024-03-25T04:02:53;5.40;99.90
15926;DHT22;8062;53.882;10.642;2024-03-25T04:04:13;5.40;99.90
15926;DHT22;8062;53.882;10.642;2024-03-25T04:05:32;5.40;99.90
15926;DHT22;8062;53.882;10.642;2024-03-25T04:06:52;5.40;99.90
15926;DHT22;8062;53.882;10.642;2024-03-25T04:08:12;5.40;99.90
15926;DHT22;8062;53.882;10.642;2024-03-25T04:09:31;5.40;99.90
15926;DHT22;8062;53.882;10.642;2024-03-25T04:10:52;5.30;99.90
15926;DHT22;8062;53.882;10.642;2024-03-25T04:12:11;5.30;99.90
15926;DHT22;8062;53.882;10.642;2024-03-25T04:13:32;5.30;99.90
15926;DHT22;8062;53.882;10.642;2024-03-25T04:14:52;5.30;99.90
15926;DHT22;8062;53.882;10.642;2024-03-25T04:16:14;5.30;99.90
15926;DHT22;8062;53.882;10.642;2024-03-25T04:17:34;5.30;99.90
15926;DHT22;8062;53.882;10.642;2024-03-25T04:18:54;5.30;99.90
15926;DHT22;8062;53.882;10.642;2024-03-25T04:20:13;5.30;99.90
15926;DHT22;8062;53.882;10.642;2024-03-25T04:21:34;5.30;99.90
15926;DHT22;8062;53.882;10.642;2024-03-25T04:22:53;5.30;99.90
15926;DHT22;8062;53.882;10.642;2024-03-25T04:24:13;5.30;99.90
15926;DHT22;8062;53.882;10.642;2024-03-25T04:25:36;5.30;99.90
15926;DHT22;8062;53.882;10.642;2024-03-25T04:26:58;5.30;99.90
15926;DHT22;8062;53.882;10.642;2024-03-25T04:28:19;5.40;99.90
15926;DHT22;8062;53.882;10.642;2024-03-25T04:29:39;5.40;99.90
15926;DHT22;8062;53.882;10.642;2024-03-25T04:30:59;5.40;99.90
15926;DHT22;8062;53.882;10.642;2024-03-25T04:32:18;5.50;99.90
15926;DHT22;8062;53.882;10.642;2024-03-25T04:33:38;5.50;99.90
15926;DHT22;8062;53.882;10.642;2024-03-25T04:34:58;5.50;99.90
15926;DHT22;8062;53.882;10.642;2024-03-25T04:36:18;5.50;99.90
15926;DHT22;8062;53.882;10.642;2024-03-25T04:37:37;5.50;99.90
15926;DHT22;8062;53.882;10.642;2024-03-25T04:38:57;5.50;99.90
15926;DHT22;8062;53.882;10.642;2024-03-25T04:40:16;5.50;99.90
15926;DHT22;8062;53.882;10.642;2024-03-25T04:41:38;5.50;99.90
15926;DHT22;8062;53.882;10.642;2024-03-25T04:42:57;5.40;99.90
15926;DHT22;8062;53.882;10.642;2024-03-25T04:44:17;5.40;99.90
15926;DHT22;8062;53.882;10.642;2024-03-25T04:45:37;5.50;99.90
15926;DHT22;8062;53.882;10.642;2024-03-25T04:46:57;5.50;99.90
15926;DHT22;8062;53.882;10.642;2024-03-25T04:48:17;5.50;99.90
15926;DHT22;8062;53.882;10.642;2024-03-25T04:49:36;5.40;99.90
15926;DHT22;8062;53.882;10.642;2024-03-25T04:50:57;5.50;99.90
15926;DHT22;8062;53.882;10.642;2024-03-25T04:52:17;5.50;99.90
15926;DHT22;8062;53.882;10.642;2024-03-25T04:53:36;5.50;99.90
15926;DHT22;8062;53.882;10.642;2024-03-25T04:54:56;5.50;99.90
15926;DHT22;8062;53.882;10.642;2024-03-25T04:56:15;5.50;99.90
15926;DHT22;8062;53.882;10.642;2024-03-25T04:57:35;5.50;99.90
15926;DHT22;8062;53.882;10.642;2024-03-25T04:58:55;5.50;99.90
15926;DHT22;8062;53.882;10.642;2024-03-25T05:00:19;5.50;99.90
15926;DHT22;8062;53.882;10.642;2024-03-25T05:01:39;5.50;99.90
15926;DHT22;8062;53.882;10.642;2024-03-25T05:02:58;5.40;99.90
15926;DHT22;8062;53.882;10.642;2024-03-25T05:04:18;5.40;99.90
15926;DHT22;8062;53.882;10.642;2024-03-25T05:05:38;5.40;99.90
15926;DHT22;8062;53.882;10.642;2024-03-25T05:06:57;5.40;99.90
15926;DHT22;8062;53.882;10.642;2024-03-25T05:08:17;5.40;99.90
15926;DHT22;8062;53.882;10.642;2024-03-25T05:09:36;5.40;99.90
15926;DHT22;8062;53.882;10.642;2024-03-25T05:10:56;5.40;99.90
15926;DHT22;8062;53.882;10.642;2024-03-25T05:12:15;5.40;99.90
15926;DHT22;8062;53.882;10.642;2024-03-25T05:13:35;5.40;99.90
15926;DHT22;8062;53.882;10.642;2024-03-25T05:14:57;5.40;99.90
15926;DHT22;8062;53.882;10.642;2024-03-25T05:16:17;5.30;99.90
15926;DHT22;8062;53.882;10.642;2024-03-25T05:17:36;5.40;99.90
15926;DHT22;8062;53.882;10.642;2024-03-25T05:18:56;5.40;99.90
15926;DHT22;8062;53.882;10.642;2024-03-25T05:20:15;5.40;99.90
15926;DHT22;8062;53.882;10.642;2024-03-25T05:21:35;5.30;99.90
15926;DHT22;8062;53.882;10.642;2024-03-25T05:22:54;5.20;99.90
15926;DHT22;8062;53.882;10.642;2024-03-25T05:24:14;5.20;99.90
15926;DHT22;8062;53.882;10.642;2024-03-25T05:25:35;5.20;99.90
15926;DHT22;8062;53.882;10.642;2024-03-25T05:26:54;5.10;99.90
15926;DHT22;8062;53.882;10.642;2024-03-25T05:28:14;5.00;99.90
15926;DHT22;8062;53.882;10.642;2024-03-25T05:29:33;5.00;99.90
15926;DHT22;8062;53.882;10.642;2024-03-25T05:30:53;4.90;99.90
15926;DHT22;8062;53.882;10.642;2024-03-25T05:32:13;4.90;99.90
15926;DHT22;8062;53.882;10.642;2024-03-25T05:33:32;4.90;99.90
15926;DHT22;8062;53.882;10.642;2024-03-25T05:34:52;4.90;99.90
15926;DHT22;8062;53.882;10.642;2024-03-25T05:36:12;4.90;99.90
15926;DHT22;8062;53.882;10.642;2024-03-25T05:37:32;4.90;99.90
15926;DHT22;8062;53.882;10.642;2024-03-25T05:38:53;5.00;99.90
15926;DHT22;8062;53.882;10.642;2024-03-25T05:40:13;5.00;99.90
15926;DHT22;8062;53.882;10.642;2024-03-25T05:41:34;5.00;99.90
15926;DHT22;8062;53.882;10.642;2024-03-25T05:42:54;5.00;99.90
15926;DHT22;8062;53.882;10.642;2024-03-25T05:44:14;5.00;99.90
15926;DHT22;8062;53.882;10.642;2024-03-25T05:45:34;5.00;99.90
15926;DHT22;8062;53.882;10.642;2024-03-25T05:46:53;5.00;99.90
15926;DHT22;8062;53.882;10.642;2024-03-25T05:48:13;5.00;99.90
15926;DHT22;8062;53.882;10.642;2024-03-25T05:49:32;5.00;99.90
15926;DHT22;8062;53.882;10.642;2024-03-25T05:51:05;5.10;99.90
15926;DHT22;8062;53.882;10.642;2024-03-25T05:52:28;5.10;99.90
15926;DHT22;8062;53.882;10.642;2024-03-25T05:53:48;5.10;99.90
15926;DHT22;8062;53.882;10.642;2024-03-25T05:55:07;5.10;99.90
15926;DHT22;8062;53.882;10.642;2024-03-25T05:56:29;5.10;99.90
15926;DHT22;8062;53.882;10.642;2024-03-25T05:57:51;5.10;99.90
15926;DHT22;8062;53.882;10.642;2024-03-25T05:59:11;5.10;99.90
15926;DHT22;8062;53.882;10.642;2024-03-25T06:00:30;5.10;99.90
15926;DHT22;8062;53.882;10.642;2024-03-25T06:01:50;5.00;99.90
15926;DHT22;8062;53.882;10.642;2024-03-25T06:03:09;5.00;99.90
15926;DHT22;8062;53.882;10.642;2024-03-25T06:04:29;5.00;99.90
15926;DHT22;8062;53.882;10.642;2024-03-25T06:05:48;4.90;99.90
15926;DHT22;8062;53.882;10.642;2024-03-25T06:07:08;4.90;99.90
15926;DHT22;8062;53.882;10.642;2024-03-25T06:08:28;4.80;99.90
15926;DHT22;8062;53.882;10.642;2024-03-25T06:09:48;4.80;99.90
15926;DHT22;8062;53.882;10.642;2024-03-25T06:11:08;4.80;99.90
15926;DHT22;8062;53.882;10.642;2024-03-25T06:12:27;4.80;99.90
15926;DHT22;8062;53.882;10.642;2024-03-25T06:13:47;4.80;99.90
15926;DHT22;8062;53.882;10.642;2024-03-25T06:15:07;4.90;99.90
15926;DHT22;8062;53.882;10.642;2024-03-25T06:16:26;4.90;99.90
15926;DHT22;8062;53.882;10.642;2024-03-25T06:17:45;4.90;99.90
15926;DHT22;8062;53.882;10.642;2024-03-25T06:19:07;5.00;99.90
15926;DHT22;8062;53.882;10.642;2024-03-25T06:20:27;5.00;99.90
15926;DHT22;8062;53.882;10.642;2024-03-25T06:21:46;5.00;99.90
15926;DHT22;8062;53.882;10.642;2024-03-25T06:23:07;5.10;99.90
15926;DHT22;8062;53.882;10.642;2024-03-25T06:24:26;5.10;99.90
15926;DHT22;8062;53.882;10.642;2024-03-25T06:25:46;5.20;99.90
15926;DHT22;8062;53.882;10.642;2024-03-25T06:27:07;5.20;99.90
15926;DHT22;8062;53.882;10.642;2024-03-25T06:28:26;5.30;99.90
15926;DHT22;8062;53.882;10.642;2024-03-25T06:29:46;5.30;99.90
15926;DHT22;8062;53.882;10.642;2024-03-25T06:31:06;5.40;99.90
15926;DHT22;8062;53.882;10.642;2024-03-25T06:32:44;5.40;99.90
15926;DHT22;8062;53.882;10.642;2024-03-25T06:34:22;5.50;99.90
15926;DHT22;8062;53.882;10.642;2024-03-25T06:35:44;5.60;99.90
15926;DHT22;8062;53.882;10.642;2024-03-25T06:37:04;5.70;99.90
15926;DHT22;8062;53.882;10.642;2024-03-25T06:38:24;5.70;99.90
15926;DHT22;8062;53.882;10.642;2024-03-25T06:39:44;5.80;99.90
15926;DHT22;8062;53.882;10.642;2024-03-25T06:41:04;5.80;99.90
15926;DHT22;8062;53.882;10.642;2024-03-25T06:42:23;5.80;99.90
15926;DHT22;8062;53.882;10.642;2024-03-25T06:43:43;5.90;99.90
15926;DHT22;8062;53.882;10.642;2024-03-25T06:45:03;6.00;99.90
15926;DHT22;8062;53.882;10.642;2024-03-25T06:46:22;6.10;99.90
15926;DHT22;8062;53.882;10.642;2024-03-25T06:47:42;6.10;99.90
15926;DHT22;8062;53.882;10.642;2024-03-25T06:49:01;6.00;99.90
15926;DHT22;8062;53.882;10.642;2024-03-25T06:50:21;6.10;99.90
15926;DHT22;8062;53.882;10.642;2024-03-25T06:51:42;6.10;99.90
15926;DHT22;8062;53.882;10.642;2024-03-25T06:53:02;6.10;99.90
15926;DHT22;8062;53.882;10.642;2024-03-25T06:54:22;6.10;99.90
15926;DHT22;8062;53.882;10.642;2024-03-25T06:55:41;6.10;99.90
15926;DHT22;8062;53.882;10.642;2024-03-25T06:57:01;6.10;99.90
15926;DHT22;8062;53.882;10.642;2024-03-25T06:58:23;6.30;99.90
15926;DHT22;8062;53.882;10.642;2024-03-25T06:59:42;6.50;99.90
15926;DHT22;8062;53.882;10.642;2024-03-25T07:01:07;6.80;99.90
15926;DHT22;8062;53.882;10.642;2024-03-25T07:02:26;7.00;99.90
15926;DHT22;8062;53.882;10.642;2024-03-25T07:03:46;7.00;99.90
15926;DHT22;8062;53.882;10.642;2024-03-25T07:05:07;7.10;99.90
15926;DHT22;8062;53.882;10.642;2024-03-25T07:06:27;7.20;99.90
15926;DHT22;8062;53.882;10.642;2024-03-25T07:07:46;7.20;99.90
15926;DHT22;8062;53.882;10.642;2024-03-25T07:09:06;7.20;99.90
15926;DHT22;8062;53.882;10.642;2024-03-25T07:10:26;7.50;99.90
15926;DHT22;8062;53.882;10.642;2024-03-25T07:11:45;7.60;99.90
15926;DHT22;8062;53.882;10.642;2024-03-25T07:13:06;7.50;99.90
15926;DHT22;8062;53.882;10.642;2024-03-25T07:14:26;7.40;99.90
15926;DHT22;8062;53.882;10.642;2024-03-25T07:15:46;7.20;99.90
15926;DHT22;8062;53.882;10.642;2024-03-25T07:17:05;7.00;99.90
15926;DHT22;8062;53.882;10.642;2024-03-25T07:18:24;6.80;99.90
15926;DHT22;8062;53.882;10.642;2024-03-25T07:19:44;6.60;99.90
15926;DHT22;8062;53.882;10.642;2024-03-25T07:21:04;6.40;99.90
15926;DHT22;8062;53.882;10.642;2024-03-25T07:22:23;6.30;99.90
15926;DHT22;8062;53.882;10.642;2024-03-25T07:23:43;6.30;99.90
15926;DHT22;8062;53.882;10.642;2024-03-25T07:25:03;6.40;99.90
15926;DHT22;8062;53.882;10.642;2024-03-25T07:26:23;6.50;99.90
15926;DHT22;8062;53.882;10.642;2024-03-25T07:27:42;6.50;99.90
15926;DHT22;8062;53.882;10.642;2024-03-25T07:29:02;6.50;99.90
15926;DHT22;8062;53.882;10.642;2024-03-25T07:30:21;6.60;99.90
15926;DHT22;8062;53.882;10.642;2024-03-25T07:31:43;6.50;99.90
15926;DHT22;8062;53.882;10.642;2024-03-25T07:33:03;6.60;99.90
15926;DHT22;8062;53.882;10.642;2024-03-25T07:34:24;6.60;99.90
15926;DHT22;8062;53.882;10.642;2024-03-25T07:35:45;6.60;99.90
15926;DHT22;8062;53.882;10.642;2024-03-25T07:37:04;6.60;99.90
15926;DHT22;8062;53.882;10.642;2024-03-25T07:38:24;6.60;99.90
15926;DHT22;8062;53.882;10.642;2024-03-25T07:39:46;6.70;99.90
15926;DHT22;8062;53.882;10.642;2024-03-25T07:41:05;6.70;99.90
15926;DHT22;8062;53.882;10.642;2024-03-25T07:42:25;6.80;99.90
15926;DHT22;8062;53.882;10.642;2024-03-25T07:43:44;6.80;99.90
15926;DHT22;8062;53.882;10.642;2024-03-25T07:45:04;7.00;99.90
15926;DHT22;8062;53.882;10.642;2024-03-25T07:46:25;7.30;99.90
15926;DHT22;8062;53.882;10.642;2024-03-25T07:47:44;7.50;99.90
15926;DHT22;8062;53.882;10.642;2024-03-25T07:49:04;7.50;99.90
15926;DHT22;8062;53.882;10.642;2024-03-25T07:50:24;7.60;99.90
15926;DHT22;8062;53.882;10.642;2024-03-25T07:51:44;7.50;99.90
15926;DHT22;8062;53.882;10.642;2024-03-25T07:53:04;7.60;99.90
15926;DHT22;8062;53.882;10.642;2024-03-25T07:54:23;7.70;99.90
15926;DHT22;8062;53.882;10.642;2024-03-25T07:55:43;7.80;99.90
15926;DHT22;8062;53.882;10.642;2024-03-25T07:57:02;8.00;99.90
15926;DHT22;8062;53.882;10.642;2024-03-25T07:58:22;8.20;99.90
15926;DHT22;8062;53.882;10.642;2024-03-25T07:59:42;8.30;99.90
15926;DHT22;8062;53.882;10.642;2024-03-25T08:01:02;8.40;99.90
15926;DHT22;8062;53.882;10.642;2024-03-25T08:02:21;8.40;99.90
15926;DHT22;8062;53.882;10.642;2024-03-25T08:03:41;8.40;99.90
15926;DHT22;8062;53.882;10.642;2024-03-25T08:05:00;8.20;99.90
15926;DHT22;8062;53.882;10.642;2024-03-25T08:06:20;8.10;99.90
15926;DHT22;8062;53.882;10.642;2024-03-25T08:07:40;7.90;99.90
15926;DHT22;8062;53.882;10.642;2024-03-25T08:09:00;7.80;99.90
15926;DHT22;8062;53.882;10.642;2024-03-25T08:10:19;7.90;99.90
15926;DHT22;8062;53.882;10.642;2024-03-25T08:11:39;7.80;99.90
15926;DHT22;8062;53.882;10.642;2024-03-25T08:12:58;7.90;99.90
15926;DHT22;8062;53.882;10.642;2024-03-25T08:14:18;8.20;99.90
15926;DHT22;8062;53.882;10.642;2024-03-25T08:15:38;8.30;99.90
15926;DHT22;8062;53.882;10.642;2024-03-25T08:16:57;8.40;99.90
15926;DHT22;8062;53.882;10.642;2024-03-25T08:18:17;8.40;99.90
15926;DHT22;8062;53.882;10.642;2024-03-25T08:19:36;8.50;99.90
15926;DHT22;8062;53.882;10.642;2024-03-25T08:20:56;8.60;99.90
15926;DHT22;8062;53.882;10.642;2024-03-25T08:22:15;8.60;99.90
15926;DHT22;8062;53.882;10.642;2024-03-25T08:23:34;8.70;99.90
15926;DHT22;8062;53.882;10.642;2024-03-25T08:24:54;8.60;99.90
15926;DHT22;8062;53.882;10.642;2024-03-25T08:26:14;8.60;99.90
15926;DHT22;8062;53.882;10.642;2024-03-25T08:27:33;8.70;99.90
15926;DHT22;8062;53.882;10.642;2024-03-25T08:28:53;8.70;99.90
15926;DHT22;8062;53.882;10.642;2024-03-25T08:30:13;8.80;99.90
15926;DHT22;8062;53.882;10.642;2024-03-25T08:31:32;8.80;99.90
15926;DHT22;8062;53.882;10.642;2024-03-25T08:32:51;8.80;99.90